sensor_id;sensor_type;location;lat;lon;timestamp;P1;durP1;ratioP1;P2;durP2;ratioP2
58152;SDS011;43967;51.634;5.566;2022-10-16T00:03:55;8.32;;;3.35;;
58152;SDS011;43967;51.634;5.566;2022-10-16T00:08:57;7.07;;;2.45;;
58152;SDS011;43967;51.634;5.566;2022-10-16T00:13:59;8.33;;;2.80;;
58152;SDS011;43967;51.634;5.566;2022-10-16T00:19:02;7.68;;;2.83;;
58152;SDS011;43967;51.634;5.566;2022-10-16T00:24:05;7.28;;;3.03;;
58152;SDS011;43967;51.634;5.566;2022-10-16T00:29:08;7.00;;;2.13;;
58152;SDS011;43967;51.634;5.566;2022-10-16T00:34:09;10.00;;;2.67;;
58152;SDS011;43967;51.634;5.566;2022-10-16T00:39:10;7.15;;;2.53;;
58152;SDS011;43967;51.634;5.566;2022-10-16T00:49:52;7.13;;;2.30;;
58152;SDS011;43967;51.634;5.566;2022-10-16T00:54:58;7.85;;;2.55;;
58152;SDS011;43967;51.634;5.566;2022-10-16T01:00:03;7.80;;;2.42;;
58152;SDS011;43967;51.634;5.566;2022-10-16T01:05:06;6.37;;;2.30;;
58152;SDS011;43967;51.634;5.566;2022-10-16T01:10:20;7.93;;;2.40;;
58152;SDS011;43967;51.634;5.566;2022-10-16T01:15:40;6.60;;;2.10;;
58152;SDS011;43967;51.634;5.566;2022-10-16T01:20:51;9.03;;;2.43;;
58152;SDS011;43967;51.634;5.566;2022-10-16T01:26:08;6.37;;;2.13;;
58152;SDS011;43967;51.634;5.566;2022-10-16T01:31:36;6.18;;;2.30;;
58152;SDS011;43967;51.634;5.566;2022-10-16T01:36:42;6.65;;;2.30;;
58152;SDS011;43967;51.634;5.566;2022-10-16T01:41:51;7.00;;;2.13;;
58152;SDS011;43967;51.634;5.566;2022-10-16T01:46:55;6.53;;;2.13;;
58152;SDS011;43967;51.634;5.566;2022-10-16T01:51:58;6.60;;;2.10;;
58152;SDS011;43967;51.634;5.566;2022-10-16T01:57:03;6.10;;;1.70;;
58152;SDS011;43967;51.634;5.566;2022-10-16T02:02:11;6.50;;;2.03;;
58152;SDS011;43967;51.634;5.566;2022-10-16T02:07:15;8.45;;;2.22;;
58152;SDS011;43967;51.634;5.566;2022-10-16T02:12:23;6.10;;;1.90;;
58152;SDS011;43967;51.634;5.566;2022-10-16T02:17:27;7.40;;;2.20;;
58152;SDS011;43967;51.634;5.566;2022-10-16T02:22:32;7.55;;;1.90;;
58152;SDS011;43967;51.634;5.566;2022-10-16T02:32:44;6.77;;;1.90;;
58152;SDS011;43967;51.634;5.566;2022-10-16T02:37:46;5.85;;;1.90;;
58152;SDS011;43967;51.634;5.566;2022-10-16T02:42:52;6.78;;;1.92;;
58152;SDS011;43967;51.634;5.566;2022-10-16T02:47:55;6.10;;;2.10;;
58152;SDS011;43967;51.634;5.566;2022-10-16T02:52:56;6.47;;;1.70;;
58152;SDS011;43967;51.634;5.566;2022-10-16T02:57:57;7.07;;;2.30;;
58152;SDS011;43967;51.634;5.566;2022-10-16T03:02:58;6.83;;;1.87;;
58152;SDS011;43967;51.634;5.566;2022-10-16T03:07:59;6.70;;;2.13;;
58152;SDS011;43967;51.634;5.566;2022-10-16T03:13:00;5.60;;;1.55;;
58152;SDS011;43967;51.634;5.566;2022-10-16T03:18:01;5.78;;;1.95;;
58152;SDS011;43967;51.634;5.566;2022-10-16T03:23:02;5.93;;;1.90;;
58152;SDS011;43967;51.634;5.566;2022-10-16T03:28:04;6.18;;;1.70;;
58152;SDS011;43967;51.634;5.566;2022-10-16T03:33:05;5.55;;;1.70;;
58152;SDS011;43967;51.634;5.566;2022-10-16T03:38:06;6.67;;;1.90;;
58152;SDS011;43967;51.634;5.566;2022-10-16T03:43:07;6.30;;;1.50;;
58152;SDS011;43967;51.634;5.566;2022-10-16T03:48:08;6.00;;;1.80;;
58152;SDS011;43967;51.634;5.566;2022-10-16T03:53:09;5.70;;;1.80;;
58152;SDS011;43967;51.634;5.566;2022-10-16T03:58:11;5.83;;;2.17;;
58152;SDS011;43967;51.634;5.566;2022-10-16T04:03:15;6.05;;;1.83;;
58152;SDS011;43967;51.634;5.566;2022-10-16T04:08:16;5.40;;;1.85;;
58152;SDS011;43967;51.634;5.566;2022-10-16T04:13:17;5.50;;;1.63;;
58152;SDS011;43967;51.634;5.566;2022-10-16T04:18:18;5.78;;;1.63;;
58152;SDS011;43967;51.634;5.566;2022-10-16T04:23:19;5.55;;;1.58;;
58152;SDS011;43967;51.634;5.566;2022-10-16T04:28:21;6.33;;;1.77;;
58152;SDS011;43967;51.634;5.566;2022-10-16T04:33:22;5.63;;;1.85;;
58152;SDS011;43967;51.634;5.566;2022-10-16T04:38:23;5.60;;;1.67;;
58152;SDS011;43967;51.634;5.566;2022-10-16T04:43:24;6.43;;;1.70;;
58152;SDS011;43967;51.634;5.566;2022-10-16T04:48:25;5.93;;;1.67;;
58152;SDS011;43967;51.634;5.566;2022-10-16T04:53:26;5.80;;;1.50;;
58152;SDS011;43967;51.634;5.566;2022-10-16T04:58:27;5.30;;;1.60;;
58152;SDS011;43967;51.634;5.566;2022-10-16T05:03:28;5.40;;;1.47;;
58152;SDS011;43967;51.634;5.566;2022-10-16T05:08:29;5.28;;;1.45;;
58152;SDS011;43967;51.634;5.566;2022-10-16T05:13:30;5.10;;;1.60;;
58152;SDS011;43967;51.634;5.566;2022-10-16T05:18:32;5.53;;;1.63;;
58152;SDS011;43967;51.634;5.566;2022-10-16T05:23:33;5.55;;;1.70;;
58152;SDS011;43967;51.634;5.566;2022-10-16T05:28:34;5.47;;;1.40;;
58152;SDS011;43967;51.634;5.566;2022-10-16T05:33:36;5.17;;;1.53;;
58152;SDS011;43967;51.634;5.566;2022-10-16T05:38:37;5.10;;;1.40;;
58152;SDS011;43967;51.634;5.566;2022-10-16T05:43:38;5.93;;;1.52;;
58152;SDS011;43967;51.634;5.566;2022-10-16T05:48:39;5.38;;;1.70;;
58152;SDS011;43967;51.634;5.566;2022-10-16T05:53:40;4.50;;;1.30;;
58152;SDS011;43967;51.634;5.566;2022-10-16T05:58:44;5.22;;;1.30;;
58152;SDS011;43967;51.634;5.566;2022-10-16T06:03:45;4.80;;;1.45;;
58152;SDS011;43967;51.634;5.566;2022-10-16T06:08:47;5.20;;;1.60;;
58152;SDS011;43967;51.634;5.566;2022-10-16T06:13:53;5.38;;;1.60;;
58152;SDS011;43967;51.634;5.566;2022-10-16T06:18:55;5.90;;;1.55;;
58152;SDS011;43967;51.634;5.566;2022-10-16T06:23:56;5.23;;;1.70;;
58152;SDS011;43967;51.634;5.566;2022-10-16T06:28:58;5.50;;;1.77;;
58152;SDS011;43967;51.634;5.566;2022-10-16T06:34:00;4.70;;;1.30;;
58152;SDS011;43967;51.634;5.566;2022-10-16T06:39:02;5.68;;;1.58;;
58152;SDS011;43967;51.634;5.566;2022-10-16T06:44:06;4.53;;;1.30;;
58152;SDS011;43967;51.634;5.566;2022-10-16T06:49:08;5.03;;;1.52;;
58152;SDS011;43967;51.634;5.566;2022-10-16T06:54:09;6.00;;;1.48;;
58152;SDS011;43967;51.634;5.566;2022-10-16T06:59:10;6.57;;;1.40;;
58152;SDS011;43967;51.634;5.566;2022-10-16T07:04:11;5.63;;;1.77;;
58152;SDS011;43967;51.634;5.566;2022-10-16T07:09:13;7.63;;;1.50;;
58152;SDS011;43967;51.634;5.566;2022-10-16T07:14:18;4.93;;;1.30;;
58152;SDS011;43967;51.634;5.566;2022-10-16T07:19:20;9.10;;;1.60;;
58152;SDS011;43967;51.634;5.566;2022-10-16T07:24:21;6.72;;;1.75;;
58152;SDS011;43967;51.634;5.566;2022-10-16T07:29:22;8.18;;;1.67;;
58152;SDS011;43967;51.634;5.566;2022-10-16T07:34:23;7.40;;;1.60;;
58152;SDS011;43967;51.634;5.566;2022-10-16T07:39:24;6.47;;;1.50;;
58152;SDS011;43967;51.634;5.566;2022-10-16T07:44:25;7.15;;;1.50;;
58152;SDS011;43967;51.634;5.566;2022-10-16T07:49:27;7.13;;;1.80;;
58152;SDS011;43967;51.634;5.566;2022-10-16T07:54:28;12.77;;;1.83;;
58152;SDS011;43967;51.634;5.566;2022-10-16T07:59:29;7.72;;;2.05;;
58152;SDS011;43967;51.634;5.566;2022-10-16T08:04:30;7.93;;;2.10;;
58152;SDS011;43967;51.634;5.566;2022-10-16T08:09:31;8.07;;;1.67;;
58152;SDS011;43967;51.634;5.566;2022-10-16T08:14:32;10.23;;;1.83;;
58152;SDS011;43967;51.634;5.566;2022-10-16T08:19:33;8.00;;;1.83;;
58152;SDS011;43967;51.634;5.566;2022-10-16T08:24:34;8.10;;;1.37;;
58152;SDS011;43967;51.634;5.566;2022-10-16T08:29:35;6.15;;;1.33;;
58152;SDS011;43967;51.634;5.566;2022-10-16T08:34:36;9.82;;;1.77;;
58152;SDS011;43967;51.634;5.566;2022-10-16T08:39:37;9.63;;;1.80;;
58152;SDS011;43967;51.634;5.566;2022-10-16T08:49:58;8.35;;;2.05;;
58152;SDS011;43967;51.634;5.566;2022-10-16T08:55:02;11.03;;;2.07;;
58152;SDS011;43967;51.634;5.566;2022-10-16T09:00:08;9.73;;;1.83;;
58152;SDS011;43967;51.634;5.566;2022-10-16T09:05:29;9.50;;;1.83;;
58152;SDS011;43967;51.634;5.566;2022-10-16T09:10:54;10.05;;;1.67;;
58152;SDS011;43967;51.634;5.566;2022-10-16T09:16:03;9.10;;;1.40;;
58152;SDS011;43967;51.634;5.566;2022-10-16T09:21:25;10.18;;;1.70;;
58152;SDS011;43967;51.634;5.566;2022-10-16T09:26:31;8.82;;;1.50;;
58152;SDS011;43967;51.634;5.566;2022-10-16T09:31:33;8.10;;;1.63;;
58152;SDS011;43967;51.634;5.566;2022-10-16T09:36:40;7.97;;;1.40;;
58152;SDS011;43967;51.634;5.566;2022-10-16T09:41:44;10.10;;;1.77;;
58152;SDS011;43967;51.634;5.566;2022-10-16T09:46:46;8.00;;;2.03;;
58152;SDS011;43967;51.634;5.566;2022-10-16T09:51:47;6.03;;;1.53;;
58152;SDS011;43967;51.634;5.566;2022-10-16T09:56:48;7.78;;;1.63;;
58152;SDS011;43967;51.634;5.566;2022-10-16T10:01:50;8.13;;;2.03;;
58152;SDS011;43967;51.634;5.566;2022-10-16T10:06:55;6.87;;;1.40;;
58152;SDS011;43967;51.634;5.566;2022-10-16T10:11:58;8.38;;;1.83;;
58152;SDS011;43967;51.634;5.566;2022-10-16T10:17:02;6.85;;;1.70;;
58152;SDS011;43967;51.634;5.566;2022-10-16T10:22:19;7.37;;;1.60;;
58152;SDS011;43967;51.634;5.566;2022-10-16T10:33:05;8.48;;;1.45;;
58152;SDS011;43967;51.634;5.566;2022-10-16T10:38:33;6.10;;;1.57;;
58152;SDS011;43967;51.634;5.566;2022-10-16T10:43:59;10.23;;;2.23;;
58152;SDS011;43967;51.634;5.566;2022-10-16T10:54:22;7.28;;;1.83;;
58152;SDS011;43967;51.634;5.566;2022-10-16T11:05:16;9.75;;;2.10;;
58152;SDS011;43967;51.634;5.566;2022-10-16T11:10:53;8.25;;;2.10;;
58152;SDS011;43967;51.634;5.566;2022-10-16T11:16:00;10.77;;;1.83;;
58152;SDS011;43967;51.634;5.566;2022-10-16T11:21:10;11.35;;;2.17;;
58152;SDS011;43967;51.634;5.566;2022-10-16T11:26:19;10.45;;;2.17;;
58152;SDS011;43967;51.634;5.566;2022-10-16T11:31:26;9.73;;;2.30;;
58152;SDS011;43967;51.634;5.566;2022-10-16T11:36:39;9.00;;;1.90;;
58152;SDS011;43967;51.634;5.566;2022-10-16T11:52:20;10.40;;;2.10;;
58152;SDS011;43967;51.634;5.566;2022-10-16T11:57:31;9.38;;;1.88;;
58152;SDS011;43967;51.634;5.566;2022-10-16T12:08:32;10.13;;;2.03;;
58152;SDS011;43967;51.634;5.566;2022-10-16T12:13:34;11.07;;;2.40;;
58152;SDS011;43967;51.634;5.566;2022-10-16T12:18:41;11.07;;;2.20;;
58152;SDS011;43967;51.634;5.566;2022-10-16T12:24:02;10.43;;;2.33;;
58152;SDS011;43967;51.634;5.566;2022-10-16T12:34:42;9.05;;;2.00;;
58152;SDS011;43967;51.634;5.566;2022-10-16T12:39:44;11.40;;;2.33;;
58152;SDS011;43967;51.634;5.566;2022-10-16T12:44:47;8.90;;;2.17;;
58152;SDS011;43967;51.634;5.566;2022-10-16T12:49:49;11.30;;;2.45;;
58152;SDS011;43967;51.634;5.566;2022-10-16T12:54:55;11.50;;;2.15;;
58152;SDS011;43967;51.634;5.566;2022-10-16T13:00:12;10.73;;;2.10;;
58152;SDS011;43967;51.634;5.566;2022-10-16T13:16:22;8.53;;;2.17;;
58152;SDS011;43967;51.634;5.566;2022-10-16T13:27:12;11.25;;;2.40;;
58152;SDS011;43967;51.634;5.566;2022-10-16T13:32:40;11.43;;;2.40;;
58152;SDS011;43967;51.634;5.566;2022-10-16T13:37:44;11.23;;;1.90;;
58152;SDS011;43967;51.634;5.566;2022-10-16T13:42:45;14.63;;;2.40;;
58152;SDS011;43967;51.634;5.566;2022-10-16T13:47:46;11.98;;;3.25;;
58152;SDS011;43967;51.634;5.566;2022-10-16T13:52:47;13.00;;;2.83;;
58152;SDS011;43967;51.634;5.566;2022-10-16T13:57:48;14.48;;;2.45;;
58152;SDS011;43967;51.634;5.566;2022-10-16T14:02:55;12.80;;;2.40;;
58152;SDS011;43967;51.634;5.566;2022-10-16T14:08:01;18.53;;;8.97;;
58152;SDS011;43967;51.634;5.566;2022-10-16T14:13:03;15.67;;;5.20;;
58152;SDS011;43967;51.634;5.566;2022-10-16T14:18:06;16.50;;;3.90;;
58152;SDS011;43967;51.634;5.566;2022-10-16T14:23:28;10.18;;;3.38;;
58152;SDS011;43967;51.634;5.566;2022-10-16T14:28:31;12.23;;;3.33;;
58152;SDS011;43967;51.634;5.566;2022-10-16T14:33:33;8.75;;;2.85;;
58152;SDS011;43967;51.634;5.566;2022-10-16T14:38:34;14.23;;;3.00;;
58152;SDS011;43967;51.634;5.566;2022-10-16T14:43:38;13.27;;;3.53;;
58152;SDS011;43967;51.634;5.566;2022-10-16T14:48:42;12.02;;;3.22;;
58152;SDS011;43967;51.634;5.566;2022-10-16T14:53:44;13.18;;;3.03;;
58152;SDS011;43967;51.634;5.566;2022-10-16T14:58:46;11.67;;;2.83;;
58152;SDS011;43967;51.634;5.566;2022-10-16T15:03:47;9.13;;;2.57;;
58152;SDS011;43967;51.634;5.566;2022-10-16T15:08:48;9.15;;;2.80;;
58152;SDS011;43967;51.634;5.566;2022-10-16T15:13:49;11.63;;;3.08;;
58152;SDS011;43967;51.634;5.566;2022-10-16T15:18:50;11.00;;;2.93;;
58152;SDS011;43967;51.634;5.566;2022-10-16T15:23:51;13.10;;;3.13;;
58152;SDS011;43967;51.634;5.566;2022-10-16T15:28:53;16.65;;;3.42;;
58152;SDS011;43967;51.634;5.566;2022-10-16T15:33:54;11.00;;;3.00;;
58152;SDS011;43967;51.634;5.566;2022-10-16T15:38:55;13.75;;;2.55;;
58152;SDS011;43967;51.634;5.566;2022-10-16T15:43:56;17.90;;;3.08;;
58152;SDS011;43967;51.634;5.566;2022-10-16T15:48:58;12.70;;;2.50;;
58152;SDS011;43967;51.634;5.566;2022-10-16T15:53:59;12.33;;;2.70;;
58152;SDS011;43967;51.634;5.566;2022-10-16T15:59:00;11.65;;;2.75;;
58152;SDS011;43967;51.634;5.566;2022-10-16T16:04:01;8.77;;;2.80;;
58152;SDS011;43967;51.634;5.566;2022-10-16T16:09:03;11.43;;;2.67;;
58152;SDS011;43967;51.634;5.566;2022-10-16T16:14:07;10.07;;;2.38;;
58152;SDS011;43967;51.634;5.566;2022-10-16T16:19:13;10.20;;;2.80;;
58152;SDS011;43967;51.634;5.566;2022-10-16T16:24:15;13.40;;;2.70;;
58152;SDS011;43967;51.634;5.566;2022-10-16T16:29:16;15.40;;;3.70;;
58152;SDS011;43967;51.634;5.566;2022-10-16T16:34:17;12.05;;;2.70;;
58152;SDS011;43967;51.634;5.566;2022-10-16T16:39:18;26.27;;;6.97;;
58152;SDS011;43967;51.634;5.566;2022-10-16T16:44:19;19.47;;;4.67;;
58152;SDS011;43967;51.634;5.566;2022-10-16T16:49:21;24.52;;;5.22;;
58152;SDS011;43967;51.634;5.566;2022-10-16T16:54:22;20.42;;;4.93;;
58152;SDS011;43967;51.634;5.566;2022-10-16T16:59:23;25.80;;;5.37;;
58152;SDS011;43967;51.634;5.566;2022-10-16T17:04:24;25.45;;;5.80;;
58152;SDS011;43967;51.634;5.566;2022-10-16T17:09:25;23.08;;;5.40;;
58152;SDS011;43967;51.634;5.566;2022-10-16T17:14:27;20.30;;;4.83;;
58152;SDS011;43967;51.634;5.566;2022-10-16T17:19:28;27.45;;;4.80;;
58152;SDS011;43967;51.634;5.566;2022-10-16T17:24:29;21.25;;;4.63;;
58152;SDS011;43967;51.634;5.566;2022-10-16T17:29:30;24.33;;;5.20;;
58152;SDS011;43967;51.634;5.566;2022-10-16T17:34:31;18.03;;;4.90;;
58152;SDS011;43967;51.634;5.566;2022-10-16T17:39:33;19.25;;;4.93;;
58152;SDS011;43967;51.634;5.566;2022-10-16T17:44:34;25.67;;;5.63;;
58152;SDS011;43967;51.634;5.566;2022-10-16T17:49:35;25.47;;;6.47;;
58152;SDS011;43967;51.634;5.566;2022-10-16T17:54:36;22.60;;;6.78;;
58152;SDS011;43967;51.634;5.566;2022-10-16T17:59:37;14.10;;;6.05;;
58152;SDS011;43967;51.634;5.566;2022-10-16T18:04:38;12.13;;;5.43;;
58152;SDS011;43967;51.634;5.566;2022-10-16T18:09:39;10.88;;;5.07;;
58152;SDS011;43967;51.634;5.566;2022-10-16T18:14:40;13.25;;;5.00;;
58152;SDS011;43967;51.634;5.566;2022-10-16T18:19:41;13.17;;;5.23;;
58152;SDS011;43967;51.634;5.566;2022-10-16T18:24:42;11.53;;;5.10;;
58152;SDS011;43967;51.634;5.566;2022-10-16T18:29:44;13.40;;;4.95;;
58152;SDS011;43967;51.634;5.566;2022-10-16T18:34:45;11.55;;;4.75;;
58152;SDS011;43967;51.634;5.566;2022-10-16T18:39:46;17.40;;;5.20;;
58152;SDS011;43967;51.634;5.566;2022-10-16T18:44:47;13.98;;;5.05;;
58152;SDS011;43967;51.634;5.566;2022-10-16T18:49:48;11.18;;;4.95;;
58152;SDS011;43967;51.634;5.566;2022-10-16T18:54:49;13.20;;;5.50;;
58152;SDS011;43967;51.634;5.566;2022-10-16T18:59:56;13.02;;;5.22;;
58152;SDS011;43967;51.634;5.566;2022-10-16T19:04:57;17.48;;;7.47;;
58152;SDS011;43967;51.634;5.566;2022-10-16T19:09:58;14.57;;;6.83;;
58152;SDS011;43967;51.634;5.566;2022-10-16T19:14:59;15.90;;;6.87;;
58152;SDS011;43967;51.634;5.566;2022-10-16T19:20:00;17.50;;;6.38;;
58152;SDS011;43967;51.634;5.566;2022-10-16T19:35:36;20.80;;;6.45;;
58152;SDS011;43967;51.634;5.566;2022-10-16T19:40:37;18.23;;;6.00;;
58152;SDS011;43967;51.634;5.566;2022-10-16T19:45:38;18.07;;;6.80;;
58152;SDS011;43967;51.634;5.566;2022-10-16T19:50:43;15.07;;;6.32;;
58152;SDS011;43967;51.634;5.566;2022-10-16T19:55:45;15.75;;;6.28;;
58152;SDS011;43967;51.634;5.566;2022-10-16T20:00:46;16.17;;;5.70;;
58152;SDS011;43967;51.634;5.566;2022-10-16T20:05:51;17.03;;;5.50;;
58152;SDS011;43967;51.634;5.566;2022-10-16T20:10:53;15.98;;;6.13;;
58152;SDS011;43967;51.634;5.566;2022-10-16T20:15:54;15.63;;;5.65;;
58152;SDS011;43967;51.634;5.566;2022-10-16T20:20:56;12.50;;;5.00;;
58152;SDS011;43967;51.634;5.566;2022-10-16T20:25:59;62.22;;;18.55;;
58152;SDS011;43967;51.634;5.566;2022-10-16T20:31:04;30.20;;;10.15;;
58152;SDS011;43967;51.634;5.566;2022-10-16T20:36:11;35.17;;;10.23;;
58152;SDS011;43967;51.634;5.566;2022-10-16T20:41:13;27.83;;;10.00;;
58152;SDS011;43967;51.634;5.566;2022-10-16T20:46:18;31.95;;;10.60;;
58152;SDS011;43967;51.634;5.566;2022-10-16T20:51:22;26.87;;;9.07;;
58152;SDS011;43967;51.634;5.566;2022-10-16T20:56:26;26.63;;;8.80;;
58152;SDS011;43967;51.634;5.566;2022-10-16T21:01:28;29.40;;;9.63;;
58152;SDS011;43967;51.634;5.566;2022-10-16T21:06:31;27.20;;;8.40;;
58152;SDS011;43967;51.634;5.566;2022-10-16T21:11:35;24.87;;;8.43;;
58152;SDS011;43967;51.634;5.566;2022-10-16T21:16:36;30.38;;;8.07;;
58152;SDS011;43967;51.634;5.566;2022-10-16T21:21:38;27.70;;;7.60;;
58152;SDS011;43967;51.634;5.566;2022-10-16T21:26:39;24.47;;;7.43;;
58152;SDS011;43967;51.634;5.566;2022-10-16T21:31:40;22.23;;;7.32;;
58152;SDS011;43967;51.634;5.566;2022-10-16T21:36:42;20.30;;;7.55;;
58152;SDS011;43967;51.634;5.566;2022-10-16T21:41:43;20.93;;;7.73;;
58152;SDS011;43967;51.634;5.566;2022-10-16T21:46:46;21.87;;;7.07;;
58152;SDS011;43967;51.634;5.566;2022-10-16T21:51:48;18.73;;;7.00;;
58152;SDS011;43967;51.634;5.566;2022-10-16T21:56:50;23.88;;;7.63;;
58152;SDS011;43967;51.634;5.566;2022-10-16T22:01:51;22.37;;;6.87;;
58152;SDS011;43967;51.634;5.566;2022-10-16T22:06:53;21.00;;;6.43;;
58152;SDS011;43967;51.634;5.566;2022-10-16T22:11:54;17.25;;;6.28;;
58152;SDS011;43967;51.634;5.566;2022-10-16T22:16:55;17.10;;;6.40;;
58152;SDS011;43967;51.634;5.566;2022-10-16T22:21:56;17.98;;;5.93;;
58152;SDS011;43967;51.634;5.566;2022-10-16T22:26:57;15.20;;;5.70;;
58152;SDS011;43967;51.634;5.566;2022-10-16T22:31:58;18.87;;;6.27;;
58152;SDS011;43967;51.634;5.566;2022-10-16T22:36:59;19.03;;;6.73;;
58152;SDS011;43967;51.634;5.566;2022-10-16T22:42:00;13.75;;;5.57;;
58152;SDS011;43967;51.634;5.566;2022-10-16T22:47:01;16.33;;;5.65;;
58152;SDS011;43967;51.634;5.566;2022-10-16T22:52:02;15.30;;;5.00;;
58152;SDS011;43967;51.634;5.566;2022-10-16T22:57:04;16.55;;;6.10;;
58152;SDS011;43967;51.634;5.566;2022-10-16T23:02:05;15.10;;;5.88;;
58152;SDS011;43967;51.634;5.566;2022-10-16T23:07:06;13.73;;;4.60;;
58152;SDS011;43967;51.634;5.566;2022-10-16T23:12:07;13.10;;;4.50;;
58152;SDS011;43967;51.634;5.566;2022-10-16T23:17:08;14.88;;;5.00;;
58152;SDS011;43967;51.634;5.566;2022-10-16T23:22:09;15.77;;;5.50;;
58152;SDS011;43967;51.634;5.566;2022-10-16T23:27:11;14.30;;;4.87;;
58152;SDS011;43967;51.634;5.566;2022-10-16T23:32:12;12.90;;;4.88;;
58152;SDS011;43967;51.634;5.566;2022-10-16T23:37:13;15.10;;;5.18;;
58152;SDS011;43967;51.634;5.566;2022-10-16T23:42:14;12.67;;;4.43;;
58152;SDS011;43967;51.634;5.566;2022-10-16T23:47:15;13.82;;;5.13;;
58152;SDS011;43967;51.634;5.566;2022-10-16T23:52:16;12.23;;;4.45;;
58152;SDS011;43967;51.634;5.566;2022-10-16T23:57:17;13.50;;;4.33;;
